Time,TemperatureF,DewpointF,PressureIn,WindDirection,WindDirectionDegrees,WindSpeedMPH,WindSpeedGustMPH,Humidity,HourlyPrecipIn,Conditions,Clouds,dailyrainin,SolarRadiationWatts/m^2,SoftwareType,DateUTC
2013-04-21 00:01:00,41.0,32.0,-100.00,East,94,5.0,7.0,71,0.00,,,0.00,1.000000,,2013-04-21 07:01:00,
2013-04-21 00:32:00,40.0,32.0,-100.00,SSE,151,4.0,6.0,72,0.00,,,0.00,1.000000,,2013-04-21 07:32:00,
2013-04-21 00:42:00,40.0,32.0,-100.00,SSE,151,4.0,6.0,72,0.00,,,0.00,1.000000,,2013-04-21 07:42:00,
2013-04-21 00:52:00,40.0,32.0,-100.00,SSE,151,4.0,6.0,72,0.00,,,0.00,1.000000,,2013-04-21 07:52:00,
2013-04-21 01:01:00,40.0,32.0,-100.00,SSE,151,4.0,6.0,72,0.00,,,0.00,1.000000,,2013-04-21 08:01:00,
2013-04-21 01:32:00,40.0,31.0,-100.00,SSW,205,4.0,8.0,71,0.00,,,0.00,1.000000,,2013-04-21 08:32:00,
2013-04-21 01:42:00,40.0,31.0,-100.00,SSW,205,4.0,8.0,71,0.00,,,0.00,1.000000,,2013-04-21 08:42:00,
2013-04-21 01:52:00,40.0,31.0,-100.00,SSW,205,4.0,8.0,71,0.00,,,0.00,1.000000,,2013-04-21 08:52:00,
2013-04-21 02:01:00,40.0,31.0,-100.00,SSW,205,4.0,8.0,71,0.00,,,0.00,1.000000,,2013-04-21 09:01:00,
2013-04-21 02:02:00,40.0,31.0,-100.00,SW,214,7.0,10.0,71,0.00,,,0.00,1.000000,,2013-04-21 09:02:00,
2013-04-21 02:21:00,40.0,31.0,-100.00,SW,214,7.0,10.0,71,0.00,,,0.00,1.000000,,2013-04-21 09:21:00,
2013-04-21 02:33:00,40.0,31.0,-100.00,SW,214,7.0,10.0,71,0.00,,,0.00,1.000000,,2013-04-21 09:33:00,
2013-04-21 02:43:00,40.0,31.0,-100.00,SW,214,7.0,10.0,71,0.00,,,0.00,1.000000,,2013-04-21 09:43:00,
2013-04-21 02:53:00,40.0,31.0,-100.00,SW,214,7.0,10.0,71,0.00,,,0.00,1.000000,,2013-04-21 09:53:00,
2013-04-21 03:02:00,39.0,31.0,-100.00,SW,223,4.0,9.0,73,0.00,,,0.00,1.000000,,2013-04-21 10:02:00,
2013-04-21 03:22:00,39.0,31.0,-100.00,SW,223,4.0,9.0,73,0.00,,,0.00,1.000000,,2013-04-21 10:22:00,
2013-04-21 03:33:00,39.0,31.0,-100.00,SW,223,4.0,9.0,73,0.00,,,0.00,1.000000,,2013-04-21 10:33:00,
2013-04-21 03:42:00,39.0,31.0,-100.00,SW,223,4.0,9.0,73,0.00,,,0.00,1.000000,,2013-04-21 10:42:00,
2013-04-21 03:52:00,39.0,31.0,-100.00,SW,223,4.0,9.0,73,0.00,,,0.00,1.000000,,2013-04-21 10:52:00,
2013-04-21 04:02:00,37.0,32.0,-100.00,SE,131,3.0,6.0,81,0.00,,,0.00,1.000000,,2013-04-21 11:02:00,
2013-04-21 04:34:00,37.0,32.0,-100.00,SE,131,3.0,6.0,81,0.00,,,0.00,1.000000,,2013-04-21 11:34:00,
2013-04-21 04:42:00,37.0,32.0,-100.00,SE,131,3.0,6.0,81,0.00,,,0.00,1.000000,,2013-04-21 11:42:00,
2013-04-21 04:52:00,37.0,32.0,-100.00,SE,131,3.0,6.0,81,0.00,,,0.00,1.000000,,2013-04-21 11:52:00,
2013-04-21 05:22:00,37.0,30.0,-100.00,SSW,206,5.0,7.0,75,0.00,,,-99.99,1.000000,,2013-04-21 12:22:00,
2013-04-21 05:32:00,37.0,30.0,-100.00,SSW,206,5.0,7.0,75,0.00,,,-99.99,1.000000,,2013-04-21 12:32:00,
2013-04-21 05:42:00,37.0,30.0,-100.00,SSW,206,5.0,7.0,75,0.00,,,-99.99,1.000000,,2013-04-21 12:42:00,
2013-04-21 05:52:00,37.0,30.0,-100.00,SSW,206,5.0,7.0,75,0.00,,,-99.99,1.000000,,2013-04-21 12:52:00,
2013-04-21 06:01:00,37.0,30.0,-100.00,SSW,206,5.0,7.0,75,0.00,,,-99.99,1.000000,,2013-04-21 13:01:00,
2013-04-21 06:32:00,40.0,31.0,-100.00,SW,216,4.0,10.0,69,0.00,,,0.00,1.000000,,2013-04-21 13:32:00,
2013-04-21 06:42:00,40.0,31.0,-100.00,SW,216,4.0,10.0,69,0.00,,,0.00,1.000000,,2013-04-21 13:42:00,
2013-04-21 06:52:00,40.0,31.0,-100.00,SW,216,4.0,10.0,69,0.00,,,0.00,1.000000,,2013-04-21 13:52:00,
2013-04-21 07:01:00,40.0,31.0,-100.00,SW,216,4.0,10.0,69,0.00,,,0.00,1.000000,,2013-04-21 14:01:00,
2013-04-21 07:22:00,41.0,31.0,-100.00,SSW,196,8.0,13.0,67,-99.99,,,0.00,2.000000,,2013-04-21 14:22:00,
2013-04-21 07:32:00,41.0,31.0,-100.00,SSW,196,8.0,13.0,67,-99.99,,,0.00,2.000000,,2013-04-21 14:32:00,
2013-04-21 07:52:00,41.0,31.0,-100.00,SSW,196,8.0,13.0,67,-99.99,,,0.00,2.000000,,2013-04-21 14:52:00,
2013-04-21 08:01:00,41.0,31.0,-100.00,SSW,196,8.0,13.0,67,-99.99,,,0.00,2.000000,,2013-04-21 15:01:00,
2013-04-21 08:02:00,44.0,33.0,-100.00,NW,310,3.0,8.0,65,-99.99,,,0.00,105.000000,,2013-04-21 15:02:00,
2013-04-21 08:22:00,44.0,33.0,-100.00,NW,310,3.0,8.0,65,-99.99,,,0.00,105.000000,,2013-04-21 15:22:00,
2013-04-21 08:33:00,44.0,33.0,-100.00,NW,310,3.0,8.0,65,-99.99,,,0.00,105.000000,,2013-04-21 15:33:00,
2013-04-21 08:43:00,44.0,33.0,-100.00,NW,310,3.0,8.0,65,-99.99,,,0.00,105.000000,,2013-04-21 15:43:00,
2013-04-21 08:53:00,44.0,33.0,-100.00,NW,310,3.0,8.0,65,-99.99,,,0.00,105.000000,,2013-04-21 15:53:00,
2013-04-21 09:23:00,48.0,30.0,-100.00,SSW,211,6.0,11.0,50,0.00,,,0.00,340.000000,,2013-04-21 16:23:00,
2013-04-21 09:33:00,48.0,30.0,-100.00,SSW,211,6.0,11.0,50,0.00,,,0.00,340.000000,,2013-04-21 16:33:00,
2013-04-21 09:42:00,48.0,30.0,-100.00,SSW,211,6.0,11.0,50,0.00,,,0.00,340.000000,,2013-04-21 16:42:00,
2013-04-21 09:52:00,48.0,30.0,-100.00,SSW,211,6.0,11.0,50,0.00,,,0.00,340.000000,,2013-04-21 16:52:00,
2013-04-21 10:01:00,48.0,30.0,-100.00,SSW,211,6.0,11.0,50,0.00,,,0.00,340.000000,,2013-04-21 17:01:00,
2013-04-21 10:02:00,50.0,30.0,-100.00,WSW,244,8.0,15.0,46,0.00,,,0.00,571.000000,,2013-04-21 17:02:00,
2013-04-21 10:32:00,50.0,30.0,-100.00,WSW,244,8.0,15.0,46,0.00,,,0.00,571.000000,,2013-04-21 17:32:00,
2013-04-21 10:42:00,50.0,30.0,-100.00,WSW,244,8.0,15.0,46,0.00,,,0.00,571.000000,,2013-04-21 17:42:00,
2013-04-21 10:52:00,50.0,30.0,-100.00,WSW,244,8.0,15.0,46,0.00,,,0.00,571.000000,,2013-04-21 17:52:00,
2013-04-21 11:02:00,55.0,32.0,-100.00,WSW,245,11.0,17.0,42,0.00,,,0.00,700.000000,,2013-04-21 18:02:00,
2013-04-21 11:22:00,55.0,32.0,-100.00,WSW,245,11.0,17.0,42,0.00,,,0.00,700.000000,,2013-04-21 18:22:00,
2013-04-21 11:33:00,55.0,32.0,-100.00,WSW,245,11.0,17.0,42,0.00,,,0.00,700.000000,,2013-04-21 18:33:00,
2013-04-21 11:42:00,55.0,32.0,-100.00,WSW,245,11.0,17.0,42,0.00,,,0.00,700.000000,,2013-04-21 18:42:00,
2013-04-21 11:52:00,55.0,32.0,-100.00,WSW,245,11.0,17.0,42,0.00,,,0.00,700.000000,,2013-04-21 18:52:00,
2013-04-21 12:32:00,57.0,36.0,-100.00,West,269,9.0,18.0,45,0.00,,,0.00,819.000000,,2013-04-21 19:32:00,
2013-04-21 12:42:00,57.0,36.0,-100.00,West,269,9.0,18.0,45,0.00,,,0.00,819.000000,,2013-04-21 19:42:00,
2013-04-21 12:52:00,57.0,36.0,-100.00,West,269,9.0,18.0,45,0.00,,,0.00,819.000000,,2013-04-21 19:52:00,
2013-04-21 13:01:00,57.0,36.0,-100.00,West,269,9.0,18.0,45,0.00,,,0.00,819.000000,,2013-04-21 20:01:00,
2013-04-21 13:02:00,57.0,36.0,-100.00,WSW,247,12.0,21.0,45,0.00,,,-99.99,817.000000,,2013-04-21 20:02:00,
2013-04-21 13:32:00,57.0,36.0,-100.00,WSW,247,12.0,21.0,45,0.00,,,-99.99,817.000000,,2013-04-21 20:32:00,
2013-04-21 13:42:00,57.0,36.0,-100.00,WSW,247,12.0,21.0,45,0.00,,,-99.99,817.000000,,2013-04-21 20:42:00,
2013-04-21 13:52:00,57.0,36.0,-100.00,WSW,247,12.0,21.0,45,0.00,,,-99.99,817.000000,,2013-04-21 20:52:00,
2013-04-21 14:02:00,58.0,37.0,-100.00,West,260,15.0,24.0,45,0.00,,,0.00,1022.000000,,2013-04-21 21:02:00,
2013-04-21 14:22:00,58.0,37.0,-100.00,West,260,15.0,24.0,45,0.00,,,0.00,1022.000000,,2013-04-21 21:22:00,
2013-04-21 14:33:00,58.0,37.0,-100.00,West,260,15.0,24.0,45,0.00,,,0.00,1022.000000,,2013-04-21 21:33:00,
2013-04-21 14:43:00,58.0,37.0,-100.00,West,260,15.0,24.0,45,0.00,,,0.00,1022.000000,,2013-04-21 21:43:00,
2013-04-21 14:53:00,58.0,37.0,-100.00,West,260,15.0,24.0,45,0.00,,,0.00,1022.000000,,2013-04-21 21:53:00,
2013-04-21 15:02:00,59.0,38.0,-100.00,West,263,14.0,23.0,45,0.00,,,0.00,818.000000,,2013-04-21 22:02:00,
2013-04-21 15:22:00,59.0,38.0,-100.00,West,263,14.0,23.0,45,0.00,,,0.00,818.000000,,2013-04-21 22:22:00,
2013-04-21 15:33:00,59.0,38.0,-100.00,West,263,14.0,23.0,45,0.00,,,0.00,818.000000,,2013-04-21 22:33:00,
2013-04-21 15:43:00,59.0,38.0,-100.00,West,263,14.0,23.0,45,0.00,,,0.00,818.000000,,2013-04-21 22:43:00,
2013-04-21 15:52:00,59.0,38.0,-100.00,West,263,14.0,23.0,45,0.00,,,0.00,818.000000,,2013-04-21 22:52:00,
2013-04-21 16:32:00,59.0,36.0,-100.00,West,265,16.0,26.0,42,0.00,,,0.00,821.000000,,2013-04-21 23:32:00,
2013-04-21 16:42:00,59.0,36.0,-100.00,West,265,16.0,26.0,42,0.00,,,0.00,821.000000,,2013-04-21 23:42:00,
2013-04-21 16:52:00,59.0,36.0,-100.00,West,265,16.0,26.0,42,0.00,,,0.00,821.000000,,2013-04-21 23:52:00,
2013-04-21 17:01:00,59.0,36.0,-100.00,West,265,16.0,26.0,42,0.00,,,0.00,821.000000,,2013-04-22 00:01:00,
2013-04-21 17:22:00,58.0,37.0,-100.00,West,270,16.0,27.0,45,0.00,,,0.00,627.000000,,2013-04-22 00:22:00,
2013-04-21 17:32:00,58.0,37.0,-100.00,West,270,16.0,27.0,45,0.00,,,0.00,627.000000,,2013-04-22 00:32:00,
2013-04-21 17:42:00,58.0,37.0,-100.00,West,270,16.0,27.0,45,0.00,,,0.00,627.000000,,2013-04-22 00:42:00,
2013-04-21 17:52:00,58.0,37.0,-100.00,West,270,16.0,27.0,45,0.00,,,0.00,627.000000,,2013-04-22 00:52:00,
2013-04-21 18:01:00,58.0,37.0,-100.00,West,270,16.0,27.0,45,0.00,,,0.00,627.000000,,2013-04-22 01:01:00,
2013-04-21 18:32:00,56.0,37.0,-100.00,West,278,15.0,24.0,48,0.00,,,0.00,442.000000,,2013-04-22 01:32:00,
2013-04-21 18:42:00,56.0,37.0,-100.00,West,278,15.0,24.0,48,0.00,,,0.00,442.000000,,2013-04-22 01:42:00,
2013-04-21 18:52:00,56.0,37.0,-100.00,West,278,15.0,24.0,48,0.00,,,0.00,442.000000,,2013-04-22 01:52:00,
2013-04-21 19:01:00,56.0,37.0,-100.00,West,278,15.0,24.0,48,0.00,,,0.00,442.000000,,2013-04-22 02:01:00,
2013-04-21 19:02:00,53.0,37.0,-100.00,WSW,251,12.0,21.0,54,0.00,,,0.00,251.000000,,2013-04-22 02:02:00,
2013-04-21 19:32:00,53.0,37.0,-100.00,WSW,251,12.0,21.0,54,0.00,,,0.00,251.000000,,2013-04-22 02:32:00,
2013-04-21 19:42:00,53.0,37.0,-100.00,WSW,251,12.0,21.0,54,0.00,,,0.00,251.000000,,2013-04-22 02:42:00,
2013-04-21 19:52:00,53.0,37.0,-100.00,WSW,251,12.0,21.0,54,0.00,,,0.00,251.000000,,2013-04-22 02:52:00,
2013-04-21 20:02:00,48.0,37.0,-100.00,WSW,256,7.0,17.0,65,0.00,,,0.00,56.000000,,2013-04-22 03:02:00,
2013-04-21 20:33:00,48.0,37.0,-100.00,WSW,256,7.0,17.0,65,0.00,,,0.00,56.000000,,2013-04-22 03:33:00,
2013-04-21 20:43:00,48.0,37.0,-100.00,WSW,256,7.0,17.0,65,0.00,,,0.00,56.000000,,2013-04-22 03:43:00,
2013-04-21 20:52:00,48.0,37.0,-100.00,WSW,256,7.0,17.0,65,0.00,,,0.00,56.000000,,2013-04-22 03:52:00,
2013-04-21 21:02:00,45.0,37.0,-100.00,North,355,7.0,12.0,74,0.00,,,0.00,1.000000,,2013-04-22 04:02:00,
2013-04-21 21:23:00,45.0,37.0,-100.00,North,355,7.0,12.0,74,0.00,,,0.00,1.000000,,2013-04-22 04:23:00,
2013-04-21 21:33:00,45.0,37.0,-100.00,North,355,7.0,12.0,74,0.00,,,0.00,1.000000,,2013-04-22 04:33:00,
2013-04-21 21:43:00,45.0,37.0,-100.00,North,355,7.0,12.0,74,0.00,,,0.00,1.000000,,2013-04-22 04:43:00,
2013-04-21 21:52:00,45.0,37.0,-100.00,North,355,7.0,12.0,74,0.00,,,0.00,1.000000,,2013-04-22 04:52:00,
2013-04-21 22:02:00,43.0,36.0,-100.00,NNE,26,8.0,13.0,76,0.00,,,0.00,1.000000,,2013-04-22 05:02:00,
2013-04-21 22:23:00,43.0,36.0,-100.00,NNE,26,8.0,13.0,76,0.00,,,0.00,1.000000,,2013-04-22 05:23:00,
2013-04-21 22:33:00,43.0,36.0,-100.00,NNE,26,8.0,13.0,76,0.00,,,0.00,1.000000,,2013-04-22 05:33:00,
2013-04-21 22:42:00,43.0,36.0,-100.00,NNE,26,8.0,13.0,76,0.00,,,0.00,1.000000,,2013-04-22 05:42:00,
2013-04-21 22:52:00,43.0,36.0,-100.00,NNE,26,8.0,13.0,76,0.00,,,0.00,1.000000,,2013-04-22 05:52:00,
2013-04-21 23:21:00,43.0,34.0,-100.00,NNE,24,8.0,12.0,71,0.00,,,0.00,1.000000,,2013-04-22 06:21:00,
2013-04-21 23:32:00,43.0,34.0,-100.00,NNE,24,8.0,12.0,71,0.00,,,0.00,1.000000,,2013-04-22 06:32:00,
2013-04-21 23:42:00,43.0,34.0,-100.00,NNE,24,8.0,12.0,71,0.00,,,0.00,1.000000,,2013-04-22 06:42:00,
2013-04-21 23:52:00,43.0,34.0,-100.00,NNE,24,8.0,12.0,71,0.00,,,0.00,1.000000,,2013-04-22 06:52:00,